createdAt,value
2019-04-25T00:01:16.184Z,12.30
2019-04-25T00:03:44.662Z,12.30
2019-04-25T00:06:12.683Z,12.20
2019-04-25T00:08:41.319Z,12.00
2019-04-25T00:11:11.680Z,11.90
2019-04-25T00:13:39.696Z,11.80
2019-04-25T00:16:08.682Z,11.80
2019-04-25T00:18:36.313Z,11.60
2019-04-25T00:21:23.955Z,11.50
2019-04-25T00:23:53.573Z,11.40
2019-04-25T00:26:32.119Z,11.30
2019-04-25T00:28:59.803Z,11.20
2019-04-25T00:31:27.464Z,11.10
2019-04-25T00:33:55.036Z,11.00
2019-04-25T00:36:22.601Z,10.90
2019-04-25T00:38:50.587Z,10.90
2019-04-25T00:41:21.170Z,10.80
2019-04-25T00:43:49.602Z,10.80
2019-04-25T00:46:18.715Z,10.70
2019-04-25T00:48:48.462Z,10.70
2019-04-25T00:51:15.934Z,10.60
2019-04-25T00:53:44.585Z,10.60
2019-04-25T00:56:13.304Z,10.50
2019-04-25T00:58:43.976Z,10.50
2019-04-25T01:01:31.706Z,10.30
2019-04-25T01:03:59.676Z,10.30
2019-04-25T01:06:27.374Z,10.20
2019-04-25T01:08:55.923Z,10.20
2019-04-25T01:11:23.936Z,10.20
2019-04-25T01:13:52.488Z,10.20
2019-04-25T01:16:22.041Z,10.10
2019-04-25T01:18:50.817Z,10.10
2019-04-25T01:21:18.834Z,10.00
2019-04-25T01:23:47.238Z,10.00
2019-04-25T01:26:14.916Z,10.00
2019-04-25T01:28:43.936Z,10.00
2019-04-25T01:31:13.786Z,9.90
2019-04-25T01:33:43.251Z,9.80
2019-04-25T01:36:13.339Z,9.80
2019-04-25T01:38:43.369Z,9.80
2019-04-25T01:41:18.982Z,9.80
2019-04-25T01:43:48.759Z,9.80
2019-04-25T01:46:17.953Z,9.80
2019-04-25T01:48:45.546Z,9.70
2019-04-25T01:51:14.219Z,9.70
2019-04-25T01:53:44.013Z,9.70
2019-04-25T01:56:13.424Z,9.60
2019-04-25T01:58:41.428Z,9.70
2019-04-25T02:01:09.068Z,9.60
2019-04-25T02:03:36.757Z,9.50
2019-04-25T02:06:05.056Z,9.60
2019-04-25T02:08:33.968Z,9.40
2019-04-25T02:11:04.732Z,9.40
2019-04-25T02:13:33.630Z,9.40
2019-04-25T02:16:02.283Z,9.40
2019-04-25T02:18:29.726Z,9.40
2019-04-25T02:20:59.967Z,9.40
2019-04-25T02:23:26.722Z,9.40
2019-04-25T02:26:06.750Z,9.40
2019-04-25T02:28:24.075Z,9.20
2019-04-25T02:30:56.487Z,9.10
2019-04-25T02:33:24.267Z,9.00
2019-04-25T02:35:53.819Z,8.90
2019-04-25T02:38:24.114Z,9.00
2019-04-25T02:40:50.983Z,9.00
2019-04-25T02:43:18.737Z,8.90
2019-04-25T02:45:51.367Z,9.90
2019-04-25T02:48:20.816Z,8.90
2019-04-25T02:50:51.429Z,9.00
2019-04-25T02:53:34.423Z,8.80
2019-04-25T02:56:08.035Z,8.70
2019-04-25T02:58:34.278Z,8.70
2019-04-25T03:01:10.649Z,8.60
2019-04-25T03:03:34.774Z,8.60
2019-04-25T03:06:03.786Z,8.60
2019-04-25T03:08:31.979Z,8.60
2019-04-25T03:10:59.858Z,8.50
2019-04-25T03:13:27.524Z,9.30
2019-04-25T03:15:55.753Z,8.40
2019-04-25T03:18:25.619Z,8.50
2019-04-25T03:20:55.132Z,8.50
2019-04-25T03:23:34.451Z,8.50
2019-04-25T03:26:03.834Z,8.50
2019-04-25T03:28:31.613Z,8.60
2019-04-25T03:30:59.845Z,8.60
2019-04-25T03:33:28.558Z,8.60
2019-04-25T03:35:56.111Z,8.50
2019-04-25T03:38:24.288Z,8.50
2019-04-25T03:40:51.980Z,8.50
2019-04-25T03:43:19.715Z,8.40
2019-04-25T03:45:47.547Z,8.20
2019-04-25T03:48:15.095Z,8.20
2019-04-25T03:50:44.113Z,8.20
2019-04-25T03:53:12.484Z,8.10
2019-04-25T03:55:41.485Z,8.20
2019-04-25T03:58:10.935Z,8.10
2019-04-25T04:00:38.597Z,8.10
2019-04-25T04:03:07.640Z,8.10
2019-04-25T04:05:35.520Z,8.10
2019-04-25T04:08:04.331Z,8.00
2019-04-25T04:10:33.266Z,8.10
2019-04-25T04:13:00.987Z,8.10
2019-04-25T04:15:28.871Z,8.10
2019-04-25T04:17:58.243Z,8.20
2019-04-25T04:20:27.639Z,8.20
2019-04-25T04:23:09.258Z,9.50
2019-04-25T04:25:37.315Z,8.20
2019-04-25T04:28:06.143Z,8.20
2019-04-25T04:30:34.758Z,8.20
2019-04-25T04:33:03.607Z,8.20
2019-04-25T04:35:31.523Z,8.10
2019-04-25T04:37:59.593Z,8.10
2019-04-25T04:40:27.087Z,8.20
2019-04-25T04:42:54.665Z,8.20
2019-04-25T04:45:23.282Z,8.30
2019-04-25T04:47:51.055Z,8.30
2019-04-25T04:50:18.765Z,8.50
2019-04-25T04:52:46.339Z,8.40
2019-04-25T04:55:16.969Z,8.40
2019-04-25T04:57:44.877Z,8.40
2019-04-25T05:00:14.283Z,8.40
2019-04-25T05:02:44.009Z,8.50
2019-04-25T05:05:30.662Z,8.60
2019-04-25T05:08:00.432Z,8.70
2019-04-25T05:10:27.941Z,8.90
2019-04-25T05:12:55.632Z,9.00
2019-04-25T05:15:24.794Z,9.10
2019-04-25T05:17:54.150Z,9.40
2019-04-25T05:20:22.228Z,10.10
2019-04-25T05:22:50.057Z,11.20
2019-04-25T05:25:19.130Z,12.10
2019-04-25T05:27:59.535Z,12.90
2019-04-25T05:30:19.095Z,13.80
2019-04-25T05:32:46.812Z,14.60
2019-04-25T05:35:15.316Z,15.50
2019-04-25T05:37:44.001Z,16.10
2019-04-25T05:40:14.747Z,16.50
2019-04-25T05:42:47.552Z,16.90
2019-04-25T05:45:18.236Z,17.20
2019-04-25T05:47:45.389Z,17.70
2019-04-25T05:50:13.900Z,17.60
2019-04-25T05:52:41.678Z,17.90
2019-04-25T05:55:09.169Z,18.20
2019-04-25T05:57:45.554Z,18.50
2019-04-25T06:00:07.086Z,18.70
2019-04-25T06:02:34.742Z,18.90
2019-04-25T06:05:06.206Z,18.80
2019-04-25T06:07:33.846Z,18.80
2019-04-25T06:10:23.582Z,18.90
2019-04-25T06:12:53.694Z,19.10
2019-04-25T06:15:24.039Z,19.00
2019-04-25T06:17:55.527Z,19.20
2019-04-25T06:20:25.735Z,19.30
2019-04-25T06:23:13.281Z,19.40
2019-04-25T06:25:41.024Z,19.40
2019-04-25T06:28:13.943Z,19.50
2019-04-25T06:30:41.608Z,19.50
2019-04-25T06:33:09.258Z,19.40
2019-04-25T06:35:37.644Z,19.40
2019-04-25T06:38:09.832Z,19.30
2019-04-25T06:40:37.510Z,19.20
2019-04-25T06:43:05.134Z,19.40
2019-04-25T06:45:40.736Z,19.80
2019-04-25T06:48:14.010Z,20.30
2019-04-25T06:50:41.818Z,20.20
2019-04-25T06:53:09.556Z,20.10
2019-04-25T06:55:37.270Z,20.10
2019-04-25T06:58:11.956Z,20.30
2019-04-25T07:00:40.985Z,20.40
2019-04-25T07:03:04.361Z,20.60
2019-04-25T07:05:35.781Z,21.00
2019-04-25T07:08:03.190Z,21.60
2019-04-25T07:10:31.471Z,22.10
2019-04-25T07:13:00.626Z,22.50
2019-04-25T07:15:28.227Z,22.90
2019-04-25T07:17:56.834Z,22.80
2019-04-25T07:20:26.815Z,23.50
2019-04-25T07:22:54.127Z,24.00
2019-04-25T07:25:26.032Z,24.10
2019-04-25T07:27:57.830Z,24.80
2019-04-25T07:30:49.287Z,25.10
2019-04-25T07:33:05.026Z,24.60
2019-04-25T07:35:33.823Z,25.20
2019-04-25T07:38:02.110Z,25.30
2019-04-25T07:40:31.759Z,25.40
2019-04-25T07:42:59.444Z,26.30
2019-04-25T07:45:27.113Z,26.50
2019-04-25T07:47:54.753Z,26.40
2019-04-25T07:50:23.849Z,26.80
2019-04-25T07:52:51.706Z,27.30
2019-04-25T07:55:19.228Z,25.50
2019-04-25T07:57:46.713Z,25.60
2019-04-25T08:00:14.411Z,25.40
2019-04-25T08:02:43.550Z,25.60
2019-04-25T08:05:14.241Z,25.80
2019-04-25T08:07:43.583Z,26.30
2019-04-25T08:10:11.511Z,26.80
2019-04-25T08:12:39.574Z,27.60
2019-04-25T08:15:15.409Z,28.20
2019-04-25T08:17:57.130Z,28.20
2019-04-25T08:20:26.490Z,28.10
2019-04-25T08:22:58.470Z,27.70
2019-04-25T08:25:23.568Z,27.80
2019-04-25T08:27:51.303Z,28.10
2019-04-25T08:30:19.125Z,28.20
2019-04-25T08:32:46.925Z,28.50
2019-04-25T08:35:16.074Z,29.00
2019-04-25T08:37:44.160Z,28.50
2019-04-25T08:40:13.581Z,28.40
2019-04-25T08:42:41.915Z,28.20
2019-04-25T08:45:10.451Z,29.00
2019-04-25T08:47:38.013Z,29.20
2019-04-25T08:50:08.909Z,29.20
2019-04-25T08:52:36.471Z,28.70
2019-04-25T08:55:09.771Z,28.90
2019-04-25T08:57:55.985Z,29.00
2019-04-25T09:00:25.871Z,28.70
2019-04-25T09:02:55.453Z,28.90
2019-04-25T09:05:25.051Z,29.20
2019-04-25T09:07:54.169Z,28.70
2019-04-25T09:10:23.632Z,28.30
2019-04-25T09:12:51.621Z,28.70
2019-04-25T09:15:19.303Z,28.50
2019-04-25T09:17:47.035Z,28.50
2019-04-25T09:20:16.724Z,28.30
2019-04-25T09:22:44.633Z,27.90
2019-04-25T09:25:14.046Z,28.50
2019-04-25T09:27:42.030Z,28.50
2019-04-25T09:30:11.611Z,28.40
2019-04-25T09:32:39.919Z,29.00
2019-04-25T09:35:07.632Z,28.30
2019-04-25T09:37:35.425Z,28.30
2019-04-25T09:40:07.521Z,28.60
2019-04-25T09:42:36.932Z,28.30
2019-04-25T09:45:06.641Z,27.80
2019-04-25T09:47:37.088Z,27.90
2019-04-25T09:50:07.065Z,28.10
2019-04-25T09:52:36.004Z,27.80
2019-04-25T09:55:08.276Z,27.90
2019-04-25T09:57:55.971Z,28.30
2019-04-25T10:00:38.184Z,28.90
2019-04-25T10:03:05.877Z,28.70
2019-04-25T10:05:33.963Z,29.00
2019-04-25T10:08:19.533Z,29.80
2019-04-25T10:10:47.841Z,30.10
2019-04-25T10:13:15.399Z,31.00
2019-04-25T10:16:02.923Z,31.00
2019-04-25T10:18:31.286Z,30.60
2019-04-25T10:20:58.755Z,30.70
2019-04-25T10:23:26.406Z,30.80
2019-04-25T10:25:54.150Z,30.80
2019-04-25T10:28:23.275Z,31.30
2019-04-25T10:30:51.018Z,30.90
2019-04-25T10:33:18.762Z,30.60
2019-04-25T10:35:51.990Z,31.20
2019-04-25T10:38:15.890Z,31.80
2019-04-25T10:40:45.146Z,31.80
2019-04-25T10:43:14.178Z,31.70
2019-04-25T10:45:42.405Z,31.00
2019-04-25T10:48:11.580Z,30.60
2019-04-25T10:50:40.161Z,30.60
2019-04-25T10:53:07.944Z,31.10
2019-04-25T10:55:35.784Z,31.20
2019-04-25T10:58:03.944Z,30.80
2019-04-25T11:00:40.581Z,29.80
2019-04-25T11:03:16.235Z,30.10
2019-04-25T11:05:43.801Z,30.30
2019-04-25T11:08:13.634Z,30.30
2019-04-25T11:10:43.874Z,30.60
2019-04-25T11:13:10.844Z,30.30
2019-04-25T11:15:38.764Z,30.80
2019-04-25T11:18:06.336Z,30.70
2019-04-25T11:20:33.944Z,30.40
2019-04-25T11:23:01.563Z,30.60
2019-04-25T11:25:29.258Z,30.90
2019-04-25T11:27:56.828Z,30.70
2019-04-25T11:30:26.332Z,30.60
2019-04-25T11:32:54.689Z,30.30
2019-04-25T11:35:24.180Z,30.70
2019-04-25T11:37:53.673Z,30.90
2019-04-25T11:40:34.610Z,30.80
2019-04-25T11:43:04.197Z,31.00
2019-04-25T11:45:34.592Z,30.70
2019-04-25T11:48:02.185Z,30.70
2019-04-25T11:50:29.873Z,30.50
2019-04-25T11:52:57.678Z,29.80
2019-04-25T11:55:25.157Z,29.90
2019-04-25T11:57:54.675Z,29.50
2019-04-25T12:00:24.540Z,29.30
2019-04-25T12:02:52.279Z,29.70
2019-04-25T12:05:20.240Z,30.20
2019-04-25T12:07:47.969Z,30.10
2019-04-25T12:10:16.140Z,29.70
2019-04-25T12:12:46.960Z,29.60
2019-04-25T12:15:14.922Z,29.70
2019-04-25T12:17:42.795Z,29.90
2019-04-25T12:20:10.396Z,29.30
2019-04-25T12:22:38.164Z,29.90
2019-04-25T12:25:07.479Z,29.60
2019-04-25T12:27:35.072Z,29.40
2019-04-25T12:30:05.386Z,28.60
2019-04-25T12:32:35.229Z,28.80
2019-04-25T12:35:06.119Z,28.60
2019-04-25T12:37:34.010Z,28.50
2019-04-25T12:40:04.404Z,29.00
2019-04-25T12:42:34.347Z,29.10
2019-04-25T12:45:14.141Z,28.20
2019-04-25T12:47:56.601Z,28.30
2019-04-25T12:50:24.592Z,28.10
2019-04-25T12:52:54.516Z,28.70
2019-04-25T12:55:21.909Z,28.80
2019-04-25T12:57:49.723Z,29.10
2019-04-25T13:00:23.845Z,29.40
2019-04-25T13:02:52.726Z,29.70
2019-04-25T13:05:20.529Z,30.00
2019-04-25T13:07:48.337Z,30.20
2019-04-25T13:10:15.939Z,29.30
2019-04-25T13:12:44.387Z,29.20
2019-04-25T13:15:13.084Z,28.80
2019-04-25T13:17:40.675Z,28.50
2019-04-25T13:20:08.406Z,28.50
2019-04-25T13:22:35.943Z,28.70
2019-04-25T13:25:05.631Z,28.10
2019-04-25T13:27:35.147Z,27.60
2019-04-25T13:30:17.991Z,27.30
2019-04-25T13:33:04.403Z,27.10
2019-04-25T13:35:36.855Z,26.90
2019-04-25T13:38:04.747Z,26.50
2019-04-25T13:40:32.578Z,26.10
2019-04-25T13:43:00.181Z,25.80
2019-04-25T13:45:27.819Z,25.80
2019-04-25T13:47:55.362Z,26.10
2019-04-25T13:50:24.624Z,25.90
2019-04-25T13:52:53.348Z,25.80
2019-04-25T13:55:23.704Z,25.80
2019-04-25T13:57:53.106Z,25.90
2019-04-25T14:00:24.745Z,26.20
2019-04-25T14:02:52.511Z,26.60
2019-04-25T14:05:21.221Z,25.70
2019-04-25T14:07:49.069Z,25.60
2019-04-25T14:10:16.891Z,25.60
2019-04-25T14:12:44.399Z,25.70
2019-04-25T14:15:13.918Z,25.50
2019-04-25T14:18:00.394Z,25.60
2019-04-25T14:20:30.052Z,25.60
2019-04-25T14:22:57.785Z,25.50
2019-04-25T14:25:27.144Z,25.60
2019-04-25T14:27:55.018Z,25.40
2019-04-25T14:30:25.245Z,25.30
2019-04-25T14:32:53.794Z,25.20
2019-04-25T14:35:21.656Z,25.20
2019-04-25T14:37:50.466Z,24.90
2019-04-25T14:40:18.280Z,24.90
2019-04-25T14:42:47.358Z,24.90
2019-04-25T14:45:16.094Z,24.90
2019-04-25T14:47:43.675Z,24.90
2019-04-25T14:50:11.248Z,24.70
2019-04-25T14:52:38.822Z,24.50
2019-04-25T14:55:10.726Z,24.50
2019-04-25T14:57:38.430Z,24.50
2019-04-25T15:00:07.813Z,24.50
2019-04-25T15:02:37.049Z,24.60
2019-04-25T15:05:04.934Z,24.70
2019-04-25T15:07:32.438Z,24.50
2019-04-25T15:10:01.353Z,24.50
2019-04-25T15:12:29.403Z,24.80
2019-04-25T15:14:57.012Z,24.90
2019-04-25T15:17:24.628Z,24.90
2019-04-25T15:19:52.354Z,25.00
2019-04-25T15:22:19.955Z,25.00
2019-04-25T15:24:47.438Z,25.20
2019-04-25T15:27:15.037Z,25.40
2019-04-25T15:29:44.526Z,25.50
2019-04-25T15:32:14.329Z,25.40
2019-04-25T15:34:46.864Z,25.50
2019-04-25T15:37:16.290Z,25.60
2019-04-25T15:39:52.012Z,25.40
2019-04-25T15:42:36.772Z,25.30
2019-04-25T15:45:21.870Z,25.30
2019-04-25T15:47:49.533Z,25.40
2019-04-25T15:50:17.300Z,25.30
2019-04-25T15:52:45.098Z,25.30
2019-04-25T15:55:12.811Z,25.20
2019-04-25T15:57:40.827Z,25.30
2019-04-25T16:00:10.561Z,25.40
2019-04-25T16:02:39.012Z,25.40
2019-04-25T16:05:08.699Z,25.40
2019-04-25T16:07:36.321Z,25.20
2019-04-25T16:10:05.242Z,25.30
2019-04-25T16:12:33.191Z,25.30
2019-04-25T16:15:00.807Z,25.20
2019-04-25T16:17:28.586Z,24.80
2019-04-25T16:19:57.383Z,25.20
2019-04-25T16:22:24.847Z,25.20
2019-04-25T16:24:52.406Z,25.10
2019-04-25T16:27:20.235Z,24.90
2019-04-25T16:29:48.114Z,25.00
2019-04-25T16:32:20.836Z,25.00
2019-04-25T16:34:46.999Z,24.90
2019-04-25T16:37:14.587Z,24.70
2019-04-25T16:39:42.684Z,24.60
2019-04-25T16:42:10.388Z,24.50
2019-04-25T16:44:38.001Z,24.40
2019-04-25T16:47:05.586Z,24.30
2019-04-25T16:49:33.263Z,24.00
2019-04-25T16:52:00.757Z,24.00
2019-04-25T16:54:29.295Z,23.00
2019-04-25T16:56:58.042Z,23.70
2019-04-25T16:59:25.642Z,23.70
2019-04-25T17:01:53.355Z,23.80
2019-04-25T17:04:20.827Z,23.80
2019-04-25T17:06:48.543Z,23.70
2019-04-25T17:09:16.126Z,23.50
2019-04-25T17:11:43.825Z,23.30
2019-04-25T17:14:31.592Z,23.20
2019-04-25T17:17:04.003Z,23.20
2019-04-25T17:19:50.193Z,23.10
2019-04-25T17:22:19.081Z,23.00
2019-04-25T17:24:46.856Z,22.90
2019-04-25T17:27:14.545Z,22.80
2019-04-25T17:29:43.009Z,22.70
2019-04-25T17:32:29.506Z,22.70
2019-04-25T17:35:01.186Z,22.60
2019-04-25T17:37:36.790Z,22.50
2019-04-25T17:40:21.487Z,22.50
2019-04-25T17:42:51.899Z,22.40
2019-04-25T17:45:23.855Z,22.20
2019-04-25T17:47:56.349Z,22.20
2019-04-25T17:50:28.162Z,22.10
2019-04-25T17:52:57.929Z,22.10
2019-04-25T17:55:30.091Z,22.00
2019-04-25T17:58:03.039Z,21.90
2019-04-25T18:00:42.004Z,21.80
2019-04-25T18:03:14.466Z,21.80
2019-04-25T18:05:47.110Z,21.70
2019-04-25T18:08:19.170Z,21.60
2019-04-25T18:10:48.715Z,21.50
2019-04-25T18:13:17.786Z,21.50
2019-04-25T18:16:02.338Z,21.40
2019-04-25T18:18:44.412Z,21.30
2019-04-25T18:21:12.142Z,21.20
2019-04-25T18:23:41.870Z,21.10
2019-04-25T18:26:14.148Z,21.00
2019-04-25T18:28:43.791Z,20.90
2019-04-25T18:31:11.417Z,20.90
2019-04-25T18:33:39.336Z,20.80
2019-04-25T18:36:20.943Z,20.10
2019-04-25T18:38:53.378Z,20.70
2019-04-25T18:41:22.782Z,20.60
2019-04-25T18:43:53.321Z,20.60
2019-04-25T18:46:25.841Z,20.50
2019-04-25T18:48:54.427Z,20.40
2019-04-25T18:51:22.123Z,20.40
2019-04-25T18:53:51.735Z,20.40
2019-04-25T18:56:30.405Z,20.30
2019-04-25T18:59:16.840Z,20.20
2019-04-25T19:02:04.397Z,20.20
2019-04-25T19:04:39.648Z,20.20
2019-04-25T19:07:07.608Z,20.20
2019-04-25T19:09:35.189Z,20.10
2019-04-25T19:12:02.679Z,20.00
2019-04-25T19:14:30.399Z,20.00
2019-04-25T19:16:58.022Z,20.00
2019-04-25T19:19:25.671Z,19.90
2019-04-25T19:21:53.484Z,19.90
2019-04-25T19:24:21.087Z,19.90
2019-04-25T19:26:48.895Z,19.80
2019-04-25T19:29:16.877Z,19.80
2019-04-25T19:31:44.730Z,19.70
2019-04-25T19:34:12.589Z,19.70
2019-04-25T19:36:40.552Z,19.70
2019-04-25T19:39:09.167Z,19.70
2019-04-25T19:41:43.014Z,19.50
2019-04-25T19:44:13.080Z,19.50
2019-04-25T19:46:45.394Z,19.50
2019-04-25T19:49:14.074Z,19.80
2019-04-25T19:51:41.786Z,19.40
2019-04-25T19:54:09.770Z,19.30
2019-04-25T19:56:37.543Z,19.30
2019-04-25T19:59:05.047Z,19.30
2019-04-25T20:01:32.636Z,19.20
2019-04-25T20:04:02.333Z,19.20
2019-04-25T20:06:34.705Z,19.10
2019-04-25T20:09:22.287Z,19.10
2019-04-25T20:11:51.788Z,19.10
2019-04-25T20:14:19.359Z,19.00
2019-04-25T20:16:47.624Z,19.00
2019-04-25T20:19:15.328Z,19.00
2019-04-25T20:21:44.400Z,18.90
2019-04-25T20:24:12.421Z,19.00
2019-04-25T20:26:40.990Z,18.90
2019-04-25T20:29:08.580Z,18.90
2019-04-25T20:31:36.245Z,18.80
2019-04-25T20:34:06.170Z,18.70
2019-04-25T20:36:33.111Z,18.70
2019-04-25T20:39:00.694Z,18.40
2019-04-25T20:41:28.408Z,18.50
2019-04-25T20:43:56.966Z,18.50
2019-04-25T20:46:24.570Z,18.40
2019-04-25T20:48:52.304Z,18.40
2019-04-25T20:51:20.125Z,18.30
2019-04-25T20:53:48.815Z,18.20
2019-04-25T20:56:16.503Z,18.10
2019-04-25T20:58:44.096Z,18.00
2019-04-25T21:01:11.790Z,17.80
2019-04-25T21:03:39.385Z,17.70
2019-04-25T21:06:08.859Z,17.60
2019-04-25T21:08:36.529Z,17.50
2019-04-25T21:11:04.109Z,17.50
2019-04-25T21:13:33.693Z,17.40
2019-04-25T21:16:20.248Z,17.40
2019-04-25T21:19:06.703Z,17.40
2019-04-25T21:21:34.466Z,17.30
2019-04-25T21:24:02.235Z,17.20
2019-04-25T21:26:29.816Z,17.20
2019-04-25T21:28:58.309Z,17.20
2019-04-25T21:31:26.256Z,17.10
2019-04-25T21:33:53.869Z,16.90
2019-04-25T21:36:21.768Z,16.80
2019-04-25T21:38:49.619Z,16.80
2019-04-25T21:41:31.859Z,16.80
2019-04-25T21:44:02.271Z,15.90
2019-04-25T21:46:30.513Z,16.80
2019-04-25T21:48:58.935Z,16.80
2019-04-25T21:51:32.836Z,16.80
2019-04-25T21:54:01.426Z,16.90
2019-04-25T21:56:29.476Z,16.90
2019-04-25T21:58:57.760Z,16.90
2019-04-25T22:01:37.006Z,16.80
2019-04-25T22:04:05.170Z,16.80
2019-04-25T22:06:33.355Z,16.80
2019-04-25T22:09:01.167Z,16.70
2019-04-25T22:11:28.927Z,17.30
2019-04-25T22:13:57.376Z,16.70
2019-04-25T22:16:25.439Z,16.60
2019-04-25T22:18:53.399Z,16.50
2019-04-25T22:21:21.953Z,16.50
2019-04-25T22:23:49.815Z,16.40
2019-04-25T22:26:17.389Z,16.40
2019-04-25T22:28:45.161Z,16.20
2019-04-25T22:31:14.623Z,16.20
2019-04-25T22:33:55.485Z,16.10
2019-04-25T22:36:24.745Z,16.00
2019-04-25T22:39:11.589Z,15.90
2019-04-25T22:41:41.794Z,15.80
2019-04-25T22:44:14.733Z,15.70
2019-04-25T22:46:42.803Z,15.50
2019-04-25T22:49:10.328Z,15.50
2019-04-25T22:51:38.141Z,15.30
2019-04-25T22:54:06.124Z,15.20
2019-04-25T22:56:34.808Z,15.10
2019-04-25T22:59:03.189Z,15.00
2019-04-25T23:01:44.747Z,14.90
2019-04-25T23:04:14.309Z,14.70
2019-04-25T23:06:43.553Z,14.80
2019-04-25T23:09:12.088Z,14.80
2019-04-25T23:11:41.011Z,14.80
2019-04-25T23:14:08.902Z,14.70
2019-04-25T23:16:37.050Z,15.00
2019-04-25T23:19:05.109Z,14.80
2019-04-25T23:21:33.243Z,14.80
2019-04-25T23:24:00.797Z,14.70
2019-04-25T23:26:30.205Z,14.70
2019-04-25T23:28:59.662Z,14.60
2019-04-25T23:31:29.059Z,14.60
2019-04-25T23:33:56.923Z,14.50
2019-04-25T23:36:24.698Z,14.50
2019-04-25T23:38:52.369Z,14.30
2019-04-25T23:41:20.389Z,14.30
2019-04-25T23:43:47.966Z,14.20
2019-04-25T23:46:16.277Z,14.20
2019-04-25T23:48:43.957Z,14.10
2019-04-25T23:51:11.552Z,14.10
2019-04-25T23:53:39.307Z,14.00
2019-04-25T23:56:07.743Z,13.90
2019-04-25T23:58:36.279Z,13.90
